Time;durP1;ratioP1;P1;durP2;ratioP2;P2;SDS_P1;SDS_P2;PMS_P1;PMS_P2;Temp;Humidity;BMP_temperature;BMP_pressure;BME280_temperature;BME280_humidity;BME280_pressure;Samples;Min_cycle;Max_cycle;Signal;HPM_P1;HPM_P2
2021/07/08 00:00:09;;;;;;;6.97;4.70;;;29.10;90.60;;;;;;5077011;28;20040;-49
2021/07/08 00:02:36;;;;;;;7.22;5.32;;;29.10;90.70;;;;;;5095454;28;20098;-51
2021/07/08 00:05:11;;;;;;;7.55;5.97;;;29.00;90.70;;;;;;5077420;28;20097;-49
2021/07/08 00:07:39;;;;;;;8.27;5.80;;;29.00;90.60;;;;;;5094202;28;20516;-50
2021/07/08 00:10:16;;;;;;;7.38;5.68;;;29.00;90.30;;;;;;5095103;28;20054;-52
2021/07/08 00:12:44;;;;;;;9.70;6.05;;;28.90;90.00;;;;;;5094690;28;20389;-51
2021/07/08 00:15:19;;;;;;;8.57;5.90;;;28.80;89.20;;;;;;5095149;28;20101;-51
2021/07/08 00:17:48;;;;;;;7.20;5.47;;;28.70;88.50;;;;;;5095180;28;20363;-52
2021/07/08 00:20:19;;;;;;;7.90;5.57;;;28.70;88.80;;;;;;5094900;28;20040;-51
2021/07/08 00:22:47;;;;;;;9.20;6.03;;;28.60;88.10;;;;;;5094551;28;20044;-50
2021/07/08 00:25:19;;;;;;;7.85;6.43;;;28.50;88.00;;;;;;5094938;28;20040;-54
2021/07/08 00:27:47;;;;;;;6.97;5.50;;;28.50;88.00;;;;;;5094778;28;20497;-52
2021/07/08 00:30:18;;;;;;;6.80;6.00;;;28.50;87.90;;;;;;5076855;28;20036;-51
2021/07/08 00:32:47;;;;;;;8.25;5.82;;;28.40;87.70;;;;;;5094599;28;20498;-49
2021/07/08 00:35:17;;;;;;;8.27;5.93;;;28.40;87.60;;;;;;5094123;28;20048;-49
2021/07/08 00:37:45;;;;;;;11.18;6.43;;;28.40;87.60;;;;;;5094006;28;20079;-52
2021/07/08 00:40:13;;;;;;;7.32;5.70;;;28.40;87.30;;;;;;5094224;28;20073;-54
2021/07/08 00:42:41;;;;;;;12.88;7.15;;;28.30;86.90;;;;;;5076341;28;20080;-52
2021/07/08 00:45:12;;;;;;;9.23;6.10;;;28.30;86.30;;;;;;5094423;28;20046;-51
2021/07/08 00:47:40;;;;;;;9.07;6.53;;;28.30;85.60;;;;;;5094118;28;20715;-49
2021/07/08 00:50:10;;;;;;;8.13;6.38;;;28.20;85.00;;;;;;5076053;28;20117;-51
2021/07/08 00:52:39;;;;;;;12.90;7.05;;;28.20;84.70;;;;;;5094618;28;20135;-51
2021/07/08 00:55:08;;;;;;;8.50;6.45;;;28.20;84.50;;;;;;5094043;28;20130;-52
2021/07/08 00:57:39;;;;;;;12.20;6.65;;;28.20;84.10;;;;;;5093825;28;20401;-53
2021/07/08 01:00:07;;;;;;;7.95;6.45;;;28.20;83.90;;;;;;5076481;28;20047;-53
2021/07/08 01:02:35;;;;;;;9.38;6.65;;;28.20;83.60;;;;;;5075774;28;20044;-52
2021/07/08 01:05:03;;;;;;;9.55;6.95;;;28.30;83.70;;;;;;5094212;28;20424;-51
2021/07/08 01:07:32;;;;;;;6.95;5.95;;;28.30;83.40;;;;;;5075698;28;20454;-54
2021/07/08 01:09:59;;;;;;;8.48;6.55;;;28.20;83.20;;;;;;5058887;28;20072;-50
2021/07/08 01:12:27;;;;;;;9.10;6.70;;;28.20;83.20;;;;;;5093405;28;20040;-50
2021/07/08 01:15:09;;;;;;;8.32;7.25;;;28.20;83.10;;;;;;5071414;28;20383;-52
2021/07/08 01:17:40;;;;;;;10.68;6.75;;;28.20;83.10;;;;;;5093559;28;20115;-52
2021/07/08 01:20:09;;;;;;;8.45;6.95;;;28.20;83.10;;;;;;5093640;28;20063;-54
2021/07/08 01:22:37;;;;;;;9.27;6.15;;;28.20;83.10;;;;;;5093804;28;20062;-54
2021/07/08 01:25:07;;;;;;;9.38;6.53;;;28.20;83.10;;;;;;5093707;28;20040;-50
2021/07/08 01:27:37;;;;;;;7.63;6.65;;;28.20;82.90;;;;;;5092693;28;20044;-53
2021/07/08 01:30:10;;;;;;;11.05;7.55;;;28.20;82.70;;;;;;5086539;28;20036;-51
2021/07/08 01:32:38;;;;;;;14.07;6.22;;;28.20;82.60;;;;;;5093413;28;20044;-50
2021/07/08 01:35:08;;;;;;;11.13;6.75;;;28.20;82.60;;;;;;5093507;28;20050;-53
2021/07/08 01:37:36;;;;;;;10.05;6.97;;;28.20;82.50;;;;;;5093302;28;20051;-51
2021/07/08 01:40:06;;;;;;;15.43;7.43;;;28.20;82.50;;;;;;5075526;28;20040;-52
2021/07/08 01:42:34;;;;;;;12.68;7.32;;;28.20;82.40;;;;;;5074477;28;20044;-50
2021/07/08 01:45:04;;;;;;;8.73;7.03;;;28.20;82.30;;;;;;5085802;28;20044;-49
2021/07/08 01:47:32;;;;;;;7.80;6.13;;;28.20;82.30;;;;;;5092544;28;20066;-52
2021/07/08 01:50:00;;;;;;;9.93;6.53;;;28.20;82.40;;;;;;5092731;28;20083;-55
2021/07/08 01:52:27;;;;;;;10.82;7.55;;;28.20;82.50;;;;;;5093579;28;20117;-51
2021/07/08 01:54:55;;;;;;;8.38;7.25;;;28.20;82.60;;;;;;5075316;28;20105;-52
2021/07/08 01:57:23;;;;;;;10.55;6.97;;;28.10;82.70;;;;;;5074059;28;20394;-55
2021/07/08 01:59:50;;;;;;;11.43;8.65;;;28.10;82.90;;;;;;5092558;28;20043;-53
2021/07/08 02:02:18;;;;;;;13.95;7.45;;;28.10;83.20;;;;;;5092647;28;20058;-54
2021/07/08 02:04:45;;;;;;;10.32;8.50;;;28.10;83.30;;;;;;5092727;28;20094;-53
2021/07/08 02:07:13;;;;;;;12.27;8.68;;;28.10;83.30;;;;;;5093204;28;20051;-53
2021/07/08 02:09:40;;;;;;;13.15;8.90;;;28.00;83.30;;;;;;5092539;28;20118;-54
2021/07/08 02:12:10;;;;;;;12.07;8.63;;;28.00;83.50;;;;;;5074150;28;20210;-53
2021/07/08 02:14:37;;;;;;;12.95;9.55;;;28.00;83.70;;;;;;5074457;28;20498;-53
2021/07/08 02:17:05;;;;;;;12.70;9.70;;;28.00;83.90;;;;;;5092646;28;20063;-52
2021/07/08 02:19:33;;;;;;;14.57;10.68;;;28.00;84.20;;;;;;5092546;28;20051;-53
2021/07/08 02:22:00;;;;;;;13.68;10.20;;;27.90;84.40;;;;;;5092875;28;20086;-53
2021/07/08 02:24:28;;;;;;;15.82;10.18;;;28.00;84.70;;;;;;5092714;28;20192;-49
2021/07/08 02:26:56;;;;;;;13.60;11.25;;;27.90;84.80;;;;;;5074410;28;20044;-51
2021/07/08 02:29:23;;;;;;;14.32;11.07;;;27.90;85.20;;;;;;5073307;28;20052;-54
2021/07/08 02:31:51;;;;;;;13.32;10.00;;;27.90;85.40;;;;;;5092075;28;20123;-53
2021/07/08 02:34:18;;;;;;;14.80;11.13;;;27.90;85.80;;;;;;5074523;28;20059;-54
2021/07/08 02:36:46;;;;;;;12.98;10.43;;;27.80;86.00;;;;;;5074357;28;20101;-52
2021/07/08 02:39:14;;;;;;;12.32;10.27;;;27.80;86.20;;;;;;5074333;28;20108;-49
2021/07/08 02:41:41;;;;;;;13.35;9.95;;;27.90;86.40;;;;;;5074233;28;20502;-52
2021/07/08 02:44:09;;;;;;;12.57;10.02;;;27.80;86.50;;;;;;5091697;28;20366;-49
2021/07/08 02:46:36;;;;;;;13.02;10.27;;;27.80;86.60;;;;;;5091881;28;20568;-54
2021/07/08 02:49:04;;;;;;;14.35;11.73;;;27.80;86.70;;;;;;5092298;28;20062;-51
2021/07/08 02:51:32;;;;;;;14.45;12.02;;;27.90;86.70;;;;;;5091683;28;20081;-50
2021/07/08 02:53:59;;;;;;;17.83;11.20;;;27.80;86.50;;;;;;5073977;28;20394;-53
2021/07/08 02:56:27;;;;;;;12.10;9.50;;;27.80;86.30;;;;;;5092121;28;20044;-52
2021/07/08 02:58:54;;;;;;;12.82;10.55;;;27.80;85.90;;;;;;5092785;28;20573;-52
2021/07/08 03:01:22;;;;;;;14.98;10.43;;;27.80;85.40;;;;;;5096336;28;20561;-52
2021/07/08 03:03:50;;;;;;;13.40;10.23;;;27.80;84.90;;;;;;5095875;28;20055;-53
2021/07/08 03:06:17;;;;;;;14.52;10.07;;;27.80;84.60;;;;;;5096034;28;20105;-54
2021/07/08 03:08:45;;;;;;;13.45;9.05;;;27.80;84.70;;;;;;5077953;28;20086;-53
2021/07/08 03:11:12;;;;;;;13.07;9.93;;;27.80;84.90;;;;;;5061635;28;20481;-54
2021/07/08 03:13:42;;;;;;;15.60;10.18;;;27.90;85.30;;;;;;5078137;28;20492;-52
2021/07/08 03:16:10;;;;;;;11.55;8.88;;;27.80;85.30;;;;;;5095943;28;20117;-53
2021/07/08 03:18:38;;;;;;;21.75;9.35;;;27.80;85.30;;;;;;5095827;28;20498;-52
2021/07/08 03:21:05;;;;;;;12.52;9.55;;;27.90;85.50;;;;;;5095875;28;20059;-51
2021/07/08 03:23:35;;;;;;;11.50;8.80;;;27.90;85.60;;;;;;5095604;28;20059;-54
2021/07/08 03:26:03;;;;;;;14.85;8.13;;;27.80;85.70;;;;;;5096117;28;20501;-52
2021/07/08 03:28:31;;;;;;;15.18;8.90;;;27.80;85.80;;;;;;5095893;28;20048;-50
2021/07/08 03:30:59;;;;;;;12.65;8.05;;;27.80;86.00;;;;;;5077361;28;20046;-51
2021/07/08 03:33:26;;;;;;;11.25;8.50;;;27.80;86.10;;;;;;5095249;28;20046;-52
2021/07/08 03:35:54;;;;;;;14.02;8.65;;;27.80;86.00;;;;;;5077596;28;20180;-53
2021/07/08 03:38:22;;;;;;;16.63;9.27;;;27.70;85.80;;;;;;5095460;28;20126;-53
2021/07/08 03:40:50;;;;;;;19.50;9.07;;;27.80;85.80;;;;;;5077318;28;20052;-51
2021/07/08 03:43:17;;;;;;;16.85;9.00;;;27.70;85.80;;;;;;5096064;28;20044;-53
2021/07/08 03:45:45;;;;;;;13.75;9.60;;;27.80;86.00;;;;;;5095430;28;20082;-53
2021/07/08 03:48:13;;;;;;;14.55;7.72;;;27.80;85.70;;;;;;5094835;28;20115;-51
2021/07/08 03:50:40;;;;;;;15.70;8.10;;;27.80;85.60;;;;;;5094925;28;20040;-52
2021/07/08 03:53:08;;;;;;;14.60;8.50;;;27.80;85.20;;;;;;5095058;28;20440;-49
2021/07/08 03:55:36;;;;;;;19.73;9.15;;;27.90;84.80;;;;;;5095228;28;20040;-52
2021/07/08 03:58:04;;;;;;;19.15;8.50;;;27.90;84.60;;;;;;5095781;28;20051;-50
2021/07/08 04:00:34;;;;;;;17.92;10.30;;;27.90;84.20;;;;;;5095311;28;20040;-50
2021/07/08 04:03:05;;;;;;;23.60;9.77;;;28.00;83.90;;;;;;5069397;28;20044;-50
2021/07/08 04:05:33;;;;;;;28.33;10.43;;;28.00;83.30;;;;;;5094599;28;20047;-50
2021/07/08 04:08:01;;;;;;;33.25;11.93;;;28.00;82.80;;;;;;5094768;28;20462;-50
2021/07/08 04:10:30;;;;;;;31.00;11.32;;;28.10;82.30;;;;;;5094739;28;20120;-55
2021/07/08 04:13:00;;;;;;;25.30;11.30;;;28.20;81.90;;;;;;5095709;28;20062;-50
2021/07/08 04:15:27;;;;;;;36.08;12.10;;;28.20;81.30;;;;;;5094988;28;20502;-54
2021/07/08 04:17:56;;;;;;;26.92;11.55;;;28.30;81.00;;;;;;5076017;28;20044;-51
2021/07/08 04:20:24;;;;;;;41.58;14.32;;;28.40;80.80;;;;;;5094052;28;20036;-52
2021/07/08 04:22:52;;;;;;;32.25;12.05;;;28.40;80.60;;;;;;5094466;28;20048;-51
2021/07/08 04:25:20;;;;;;;30.17;12.00;;;28.50;80.70;;;;;;5095601;28;20166;-54
2021/07/08 04:27:49;;;;;;;20.85;10.85;;;28.60;80.50;;;;;;5094478;28;20047;-51
2021/07/08 04:30:19;;;;;;;29.50;11.57;;;28.80;80.40;;;;;;5076846;28;20090;-53
2021/07/08 04:32:48;;;;;;;25.67;11.98;;;28.80;79.20;;;;;;5094465;28;20054;-53
2021/07/08 04:35:59;;;;;;;29.98;10.85;;;28.90;79.10;;;;;;5093698;28;20497;-51
2021/07/08 04:38:12;;;;;;;23.77;11.32;;;29.00;78.40;;;;;;5063602;28;20371;-50
2021/07/08 04:40:41;;;;;;;24.80;10.65;;;29.20;77.70;;;;;;5076692;28;20044;-53
2021/07/08 04:43:11;;;;;;;25.77;10.63;;;29.30;77.40;;;;;;5092773;28;20046;-51
2021/07/08 04:45:38;;;;;;;34.47;12.35;;;29.40;77.40;;;;;;5093931;28;20044;-52
2021/07/08 04:48:07;;;;;;;27.33;12.13;;;29.40;77.30;;;;;;5093815;28;20528;-55
2021/07/08 04:50:35;;;;;;;26.30;10.68;;;29.50;77.20;;;;;;5093280;28;20127;-51
2021/07/08 04:53:03;;;;;;;18.98;9.73;;;29.60;77.10;;;;;;5059724;28;20048;-50
2021/07/08 04:55:31;;;;;;;22.65;10.25;;;29.70;77.20;;;;;;5093792;28;20055;-54
2021/07/08 04:57:59;;;;;;;19.67;9.93;;;29.80;76.80;;;;;;5094179;28;20044;-52
2021/07/08 05:00:27;;;;;;;30.65;10.88;;;29.90;76.50;;;;;;5093951;28;20123;-54
2021/07/08 05:02:55;;;;;;;19.23;8.50;;;30.00;76.30;;;;;;5094202;28;20059;-53
2021/07/08 05:05:23;;;;;;;22.50;9.15;;;30.10;76.00;;;;;;5093200;28;20036;-52
2021/07/08 05:07:53;;;;;;;16.88;8.57;;;30.20;75.70;;;;;;5093608;28;20070;-50
2021/07/08 05:10:21;;;;;;;19.98;8.55;;;30.40;75.60;;;;;;5094462;28;20044;-53
2021/07/08 05:12:49;;;;;;;14.10;8.23;;;30.50;75.20;;;;;;5093521;28;20048;-54
2021/07/08 05:15:17;;;;;;;14.00;8.73;;;30.60;74.50;;;;;;5093767;28;20050;-52
2021/07/08 05:17:46;;;;;;;18.85;8.43;;;30.80;73.20;;;;;;5093667;28;20527;-50
2021/07/08 05:20:15;;;;;;;12.30;7.50;;;30.90;72.70;;;;;;5093016;28;20075;-54
2021/07/08 05:22:47;;;;;;;16.27;7.15;;;31.00;72.20;;;;;;5074095;28;20040;-53
2021/07/08 05:25:17;;;;;;;9.20;6.90;;;31.20;71.80;;;;;;5092398;28;20045;-54
2021/07/08 05:27:45;;;;;;;11.45;6.85;;;31.30;71.00;;;;;;5093007;28;20048;-53
2021/07/08 05:30:13;;;;;;;11.88;7.03;;;31.50;70.80;;;;;;5093598;28;20408;-50
2021/07/08 05:32:40;;;;;;;8.63;6.90;;;31.60;69.90;;;;;;5075509;28;20040;-54
2021/07/08 05:35:08;;;;;;;9.45;6.72;;;31.70;70.00;;;;;;5075171;28;20040;-52
2021/07/08 05:37:36;;;;;;;9.43;6.35;;;31.90;68.80;;;;;;5092324;28;20040;-55
2021/07/08 05:40:06;;;;;;;9.50;6.43;;;32.10;67.90;;;;;;5093391;28;20048;-55
2021/07/08 05:42:35;;;;;;;13.07;6.75;;;32.20;67.80;;;;;;5092934;28;20055;-51
2021/07/08 05:45:04;;;;;;;6.72;5.68;;;32.30;67.10;;;;;;5086200;28;20511;-54
2021/07/08 05:47:32;;;;;;;8.40;6.40;;;32.50;65.70;;;;;;5093308;28;20028;-49
2021/07/08 05:50:00;;;;;;;16.50;6.70;;;32.60;65.30;;;;;;5092693;28;20056;-55
2021/07/08 05:52:28;;;;;;;9.25;6.72;;;32.70;65.40;;;;;;5092756;28;20131;-53
2021/07/08 05:54:56;;;;;;;9.85;6.35;;;32.90;66.00;;;;;;5092824;28;20544;-52
2021/07/08 05:57:23;;;;;;;8.93;6.53;;;33.00;65.60;;;;;;5092646;28;20115;-53
2021/07/08 05:59:51;;;;;;;7.80;5.45;;;33.10;65.20;;;;;;5092947;28;20056;-53
2021/07/08 06:02:19;;;;;;;7.35;5.55;;;33.20;64.00;;;;;;5074757;28;20036;-50
2021/07/08 06:04:47;;;;;;;8.13;6.05;;;33.30;63.40;;;;;;5092488;28;20052;-54
2021/07/08 06:07:15;;;;;;;9.88;6.20;;;33.40;63.60;;;;;;5092676;28;20056;-54
2021/07/08 06:09:42;;;;;;;7.80;5.82;;;33.50;63.30;;;;;;5092094;28;20428;-52
2021/07/08 06:12:10;;;;;;;9.55;6.50;;;33.60;63.10;;;;;;5092686;28;20563;-54
2021/07/08 06:14:37;;;;;;;8.43;5.88;;;33.70;63.20;;;;;;5074595;28;20040;-50
2021/07/08 06:17:07;;;;;;;7.65;5.75;;;33.80;62.20;;;;;;5092624;28;20047;-52
2021/07/08 06:19:35;;;;;;;8.00;6.13;;;33.80;61.50;;;;;;5092356;28;20360;-53
2021/07/08 06:22:02;;;;;;;9.50;6.10;;;33.90;61.50;;;;;;5091718;28;20055;-53
2021/07/08 06:24:30;;;;;;;7.40;5.78;;;34.00;62.40;;;;;;5073618;28;20698;-53
2021/07/08 06:26:58;;;;;;;8.15;6.07;;;34.10;62.30;;;;;;5092250;28;20435;-55
2021/07/08 06:29:25;;;;;;;10.60;6.22;;;34.20;61.20;;;;;;5092312;28;20513;-55
2021/07/08 06:31:53;;;;;;;6.93;5.85;;;34.30;61.20;;;;;;5074540;28;20036;-55
2021/07/08 06:34:21;;;;;;;16.95;6.63;;;34.30;61.00;;;;;;5092730;28;20742;-54
2021/07/08 06:36:48;;;;;;;9.77;5.93;;;34.40;61.40;;;;;;5092339;28;20448;-54
2021/07/08 06:39:16;;;;;;;8.85;6.30;;;34.50;61.20;;;;;;5073505;28;20048;-55
2021/07/08 06:41:43;;;;;;;8.60;6.45;;;34.60;61.20;;;;;;5057174;28;20040;-54
2021/07/08 06:44:11;;;;;;;7.82;5.80;;;34.70;61.10;;;;;;5092212;28;20059;-55
2021/07/08 06:46:39;;;;;;;10.63;5.80;;;34.70;60.00;;;;;;5092088;28;20052;-55
2021/07/08 06:49:08;;;;;;;8.95;6.30;;;34.80;60.30;;;;;;5074709;28;20054;-53
2021/07/08 06:51:36;;;;;;;8.18;5.70;;;34.80;60.20;;;;;;5092269;28;20040;-54
2021/07/08 06:54:05;;;;;;;8.05;5.45;;;34.80;59.90;;;;;;5085276;28;20051;-55
2021/07/08 06:56:33;;;;;;;8.32;5.82;;;34.90;60.10;;;;;;5091894;28;20534;-53
2021/07/08 06:59:01;;;;;;;8.02;6.45;;;35.00;60.40;;;;;;5074359;28;20052;-54
2021/07/08 07:01:29;;;;;;;9.70;6.28;;;35.10;60.00;;;;;;5091970;28;20044;-56
2021/07/08 07:03:56;;;;;;;8.00;6.18;;;35.20;59.30;;;;;;5092466;28;20090;-55
2021/07/08 07:06:24;;;;;;;8.20;6.03;;;35.30;59.30;;;;;;5074149;28;20052;-53
2021/07/08 07:08:51;;;;;;;9.95;6.55;;;35.30;59.50;;;;;;5092197;28;20120;-55
2021/07/08 07:11:20;;;;;;;8.25;6.05;;;35.30;59.60;;;;;;5073522;28;20094;-55
2021/07/08 07:13:48;;;;;;;9.43;5.75;;;35.30;59.00;;;;;;5091677;28;20051;-56
2021/07/08 07:16:15;;;;;;;8.05;6.03;;;35.40;59.50;;;;;;5092735;28;20048;-56
2021/07/08 07:18:43;;;;;;;8.93;6.53;;;35.50;59.50;;;;;;5091817;28;20124;-55
2021/07/08 07:21:11;;;;;;;8.73;5.78;;;35.60;59.30;;;;;;5073849;28;20047;-55
2021/07/08 07:23:41;;;;;;;8.60;5.80;;;35.70;59.30;;;;;;5073611;28;20051;-56
2021/07/08 07:26:10;;;;;;;8.48;6.22;;;35.70;59.20;;;;;;5092450;28;20032;-55
2021/07/08 07:28:38;;;;;;;8.90;5.82;;;35.90;58.80;;;;;;5074488;28;20512;-55
2021/07/08 07:31:06;;;;;;;11.80;6.68;;;36.00;58.90;;;;;;5092620;28;20542;-55
2021/07/08 07:33:34;;;;;;;9.25;6.03;;;36.00;58.20;;;;;;5091503;28;20047;-55
2021/07/08 07:36:02;;;;;;;8.02;6.20;;;36.20;58.40;;;;;;5085083;28;20047;-56
2021/07/08 07:38:30;;;;;;;7.00;5.43;;;36.20;58.10;;;;;;5092268;28;20045;-55
2021/07/08 07:40:57;;;;;;;7.28;5.70;;;36.20;57.80;;;;;;5082922;28;20036;-55
2021/07/08 07:43:25;;;;;;;8.50;5.80;;;36.20;57.60;;;;;;5087788;28;20215;-54
2021/07/08 07:45:53;;;;;;;6.43;5.50;;;36.30;57.30;;;;;;5094489;28;20130;-55
2021/07/08 07:48:20;;;;;;;7.55;5.45;;;36.30;57.10;;;;;;5095573;28;20105;-55
2021/07/08 07:50:48;;;;;;;6.72;5.72;;;36.30;57.00;;;;;;5095808;28;20077;-55
2021/07/08 07:53:16;;;;;;;6.40;5.78;;;36.30;57.10;;;;;;5077788;28;20040;-54
2021/07/08 07:55:43;;;;;;;8.07;5.70;;;36.40;56.70;;;;;;5095401;28;20070;-56
2021/07/08 07:58:11;;;;;;;6.32;5.57;;;36.40;56.60;;;;;;5094157;28;20440;-55
2021/07/08 08:00:38;;;;;;;6.90;5.82;;;36.50;56.50;;;;;;5077261;28;20409;-55
2021/07/08 08:03:06;;;;;;;7.03;5.70;;;36.50;55.90;;;;;;5095269;28;20044;-55
2021/07/08 08:10:50;;;;;;;7.70;4.88;;;36.40;55.90;;;;;;5095127;28;20052;-56
2021/07/08 08:13:19;;;;;;;6.95;5.82;;;36.40;55.50;;;;;;5077287;28;20048;-55
2021/07/08 08:15:50;;;;;;;8.93;6.45;;;36.40;55.80;;;;;;5095384;28;20048;-56
2021/07/08 08:18:20;;;;;;;8.32;5.95;;;36.50;55.80;;;;;;5095140;28;20048;-54
2021/07/08 08:20:49;;;;;;;6.30;4.93;;;36.50;55.60;;;;;;5095238;28;20051;-56
2021/07/08 08:23:17;;;;;;;7.15;5.30;;;36.50;55.50;;;;;;5095013;28;20046;-55
2021/07/08 08:25:45;;;;;;;6.20;5.47;;;36.60;55.40;;;;;;5094654;28;20040;-56
2021/07/08 08:28:12;;;;;;;7.32;5.55;;;36.70;55.50;;;;;;5095197;28;20560;-56
2021/07/08 08:30:40;;;;;;;8.48;6.03;;;36.70;55.40;;;;;;5094860;28;20131;-56
2021/07/08 08:33:08;;;;;;;6.70;5.72;;;36.80;55.10;;;;;;5076739;28;20058;-56
2021/07/08 08:35:36;;;;;;;8.25;5.28;;;36.80;55.30;;;;;;5094490;28;20559;-56
2021/07/08 08:38:04;;;;;;;6.38;4.85;;;36.80;54.60;;;;;;5094706;28;20038;-54
2021/07/08 08:40:32;;;;;;;6.32;5.28;;;36.70;54.70;;;;;;5094726;28;20047;-55
2021/07/08 08:43:00;;;;;;;6.72;4.85;;;36.80;54.50;;;;;;5076793;28;20168;-56
2021/07/08 08:45:29;;;;;;;7.15;4.60;;;36.70;54.50;;;;;;5094349;28;20052;-56
2021/07/08 08:48:03;;;;;;;6.03;5.13;;;36.70;54.20;;;;;;5094734;28;20071;-56
2021/07/08 08:50:38;;;;;;;8.32;4.38;;;36.70;54.10;;;;;;5094854;28;20131;-55
2021/07/08 08:53:06;;;;;;;5.85;4.90;;;36.60;53.80;;;;;;5086840;28;20040;-56
2021/07/08 08:55:36;;;;;;;6.43;5.63;;;36.70;54.60;;;;;;5076000;28;20071;-55
2021/07/08 08:58:05;;;;;;;6.28;4.80;;;36.70;54.30;;;;;;5094152;28;20486;-56
2021/07/08 09:00:40;;;;;;;7.07;4.75;;;36.70;54.50;;;;;;5094397;28;20044;-55
2021/07/08 09:03:13;;;;;;;6.57;5.38;;;36.70;54.30;;;;;;5088227;28;20043;-56
2021/07/08 09:05:47;;;;;;;6.70;5.07;;;36.80;54.30;;;;;;5093746;28;20059;-55
2021/07/08 09:08:21;;;;;;;12.40;5.55;;;37.00;54.20;;;;;;5094336;28;20068;-55
2021/07/08 09:11:13;;;;;;;6.10;4.68;;;36.80;53.40;;;;;;5094269;28;20190;-54
2021/07/08 09:14:02;;;;;;;7.32;5.18;;;36.80;53.60;;;;;;5091821;28;20076;-55
2021/07/08 09:16:30;;;;;;;6.20;5.07;;;36.60;53.90;;;;;;5072335;28;20044;-56
2021/07/08 09:18:57;;;;;;;6.40;5.25;;;36.70;54.00;;;;;;5093918;28;20044;-55
2021/07/08 09:21:26;;;;;;;6.20;5.35;;;36.80;54.00;;;;;;5093637;28;20390;-56
2021/07/08 09:24:19;;;;;;;6.85;5.13;;;36.90;54.10;;;;;;5093802;28;20067;-55
2021/07/08 09:27:07;;;;;;;6.80;5.00;;;37.00;53.60;;;;;;5093598;28;20126;-55
2021/07/08 09:29:39;;;;;;;7.38;4.78;;;37.00;53.40;;;;;;5093382;28;20459;-56
2021/07/08 09:32:16;;;;;;;6.65;5.32;;;37.00;53.70;;;;;;5093400;28;20044;-56
2021/07/08 09:34:51;;;;;;;8.60;4.70;;;37.10;53.70;;;;;;5093521;28;20432;-56
2021/07/08 09:37:20;;;;;;;;;;;37.00;53.70;;;;;;5093972;28;20104;-54
2021/07/08 09:39:59;;;;;;;5.53;4.45;;;37.10;53.80;;;;;;5093730;28;19920;-55
2021/07/08 09:42:45;;;;;;;6.05;4.60;;;37.20;53.60;;;;;;5093882;28;20490;-55
2021/07/08 09:45:15;;;;;;;6.45;5.53;;;37.20;53.70;;;;;;5070146;28;20059;-56
2021/07/08 09:47:48;;;;;;;6.13;4.97;;;37.10;53.70;;;;;;5075182;28;20109;-55
2021/07/08 09:50:25;;;;;;;6.78;5.15;;;37.20;53.80;;;;;;5093090;28;20056;-55
2021/07/08 09:53:09;;;;;;;7.53;5.07;;;37.30;53.80;;;;;;5093460;28;20454;-56
2021/07/08 09:58:29;;;;;;;6.78;5.38;;;37.20;53.20;;;;;;5089500;28;20402;-55
2021/07/08 10:01:08;;;;;;;6.47;5.03;;;37.10;53.60;;;;;;5093632;28;20101;-55
2021/07/08 10:03:37;;;;;;;5.88;5.28;;;37.10;53.30;;;;;;5075204;28;20119;-56
2021/07/08 10:06:05;;;;;;;6.47;5.40;;;37.10;53.30;;;;;;5086032;28;20071;-55
2021/07/08 10:08:34;;;;;;;7.60;4.95;;;37.10;53.70;;;;;;5092392;28;20063;-56
2021/07/08 10:11:03;;;;;;;6.85;5.57;;;37.00;53.90;;;;;;5093131;28;20044;-55
2021/07/08 10:13:35;;;;;;;6.60;5.20;;;37.10;53.90;;;;;;5093008;28;20032;-55
2021/07/08 10:16:04;;;;;;;5.80;4.82;;;37.00;53.70;;;;;;5092527;28;20056;-55
2021/07/08 10:18:45;;;;;;;7.57;5.63;;;37.00;53.90;;;;;;5093126;28;20126;-56
2021/07/08 10:21:13;;;;;;;6.15;4.93;;;36.90;54.00;;;;;;5085783;28;20048;-55
2021/07/08 10:23:41;;;;;;;6.20;5.03;;;36.90;53.80;;;;;;5092661;28;20072;-53
2021/07/08 10:26:09;;;;;;;9.40;5.50;;;36.90;53.70;;;;;;5092916;28;20143;-55
2021/07/08 10:28:45;;;;;;;7.00;5.50;;;37.00;54.00;;;;;;5075460;28;20553;-56
2021/07/08 10:31:21;;;;;;;6.88;5.43;;;37.00;53.90;;;;;;5091565;28;20048;-55
2021/07/08 10:34:08;;;;;;;7.57;5.97;;;36.90;53.80;;;;;;5092374;28;20040;-55
2021/07/08 10:36:36;;;;;;;7.68;5.97;;;36.90;53.90;;;;;;5092873;28;20052;-56
2021/07/08 10:39:14;;;;;;;8.65;6.72;;;37.00;54.30;;;;;;5085862;28;20044;-54
2021/07/08 10:41:44;;;;;;;13.05;7.95;;;37.00;54.20;;;;;;5092588;28;20490;-55
2021/07/08 10:44:34;;;;;;;9.55;7.20;;;37.00;54.00;;;;;;5092467;28;20036;-55
2021/07/08 10:47:02;;;;;;;9.52;7.93;;;37.00;54.10;;;;;;5066496;28;20450;-56
2021/07/08 10:49:41;;;;;;;9.18;6.70;;;37.10;54.20;;;;;;5080573;28;20144;-54
2021/07/08 10:52:10;;;;;;;10.00;8.07;;;37.00;54.10;;;;;;5092943;28;20040;-56
2021/07/08 10:54:47;;;;;;;10.48;7.97;;;37.00;54.10;;;;;;5074303;28;20052;-56
2021/07/08 10:57:34;;;;;;;10.25;8.18;;;37.10;54.10;;;;;;5092469;28;20044;-55
2021/07/08 11:00:10;;;;;;;9.25;8.27;;;37.10;54.40;;;;;;5085350;28;20055;-55
2021/07/08 11:02:46;;;;;;;13.73;9.65;;;37.10;54.30;;;;;;5092448;28;20537;-56
2021/07/08 11:05:35;;;;;;;15.20;11.65;;;37.00;54.20;;;;;;5092175;28;20375;-57
2021/07/08 11:08:03;;;;;;;15.77;13.07;;;37.10;54.50;;;;;;5084381;28;20103;-57
2021/07/08 11:10:34;;;;;;;17.80;13.52;;;37.00;54.70;;;;;;5092568;28;20426;-56
2021/07/08 11:13:27;;;;;;;13.18;8.30;;;37.00;55.20;;;;;;5091833;28;20043;-56
2021/07/08 11:15:55;;;;;;;7.47;6.28;;;37.00;54.80;;;;;;5092552;28;20040;-68
2021/07/08 11:18:33;;;;;;;10.38;6.28;;;37.10;54.60;;;;;;5092673;28;20043;-57
2021/07/08 11:21:00;;;;;;;9.57;7.03;;;37.20;54.50;;;;;;5095131;28;20115;-57
2021/07/08 11:23:36;;;;;;;11.65;8.45;;;37.20;54.20;;;;;;5096296;28;20039;-57
2021/07/08 11:26:04;;;;;;;15.20;7.88;;;37.20;54.00;;;;;;5088025;28;20077;-57
2021/07/08 11:28:33;;;;;;;8.68;7.78;;;37.20;54.50;;;;;;5096363;28;20071;-57
2021/07/08 11:31:06;;;;;;;10.57;8.38;;;37.10;54.20;;;;;;5096796;28;20048;-57
2021/07/08 11:33:39;;;;;;;11.30;7.35;;;37.20;54.20;;;;;;5096076;28;20040;-57
2021/07/08 11:36:11;;;;;;;7.13;6.07;;;37.10;54.20;;;;;;5089619;28;20106;-57
2021/07/08 11:38:43;;;;;;;9.63;5.55;;;37.00;54.40;;;;;;5096005;28;20413;-57
2021/07/08 11:41:14;;;;;;;6.45;5.55;;;37.00;54.30;;;;;;5077943;28;20122;-57
2021/07/08 11:43:51;;;;;;;7.38;5.72;;;36.80;54.70;;;;;;5095877;28;20383;-57
2021/07/08 11:46:19;;;;;;;7.45;5.97;;;36.70;54.90;;;;;;5095694;28;20089;-57
2021/07/08 11:48:49;;;;;;;7.85;5.85;;;36.60;54.90;;;;;;5096051;28;20051;-57
2021/07/08 11:51:26;;;;;;;6.72;5.40;;;36.60;55.10;;;;;;5077507;28;20079;-57
2021/07/08 11:53:54;;;;;;;8.05;5.95;;;36.70;55.30;;;;;;5095983;28;20040;-57
2021/07/08 11:56:23;;;;;;;7.45;6.18;;;36.70;54.90;;;;;;5077886;28;20032;-57
2021/07/08 11:58:52;;;;;;;8.55;5.75;;;36.70;55.50;;;;;;5095862;28;20567;-57
2021/07/08 12:01:20;;;;;;;7.50;6.38;;;36.60;55.50;;;;;;5096084;28;20458;-57
2021/07/08 12:03:56;;;;;;;8.90;5.93;;;36.60;55.90;;;;;;5077402;28;20142;-57
2021/07/08 12:06:29;;;;;;;7.43;6.35;;;36.50;56.10;;;;;;5095680;28;20125;-57
2021/07/08 12:09:05;;;;;;;8.90;6.78;;;36.50;56.00;;;;;;5095412;28;20059;-57
2021/07/08 12:11:39;;;;;;;6.65;5.88;;;36.50;56.20;;;;;;5095566;28;20036;-57
2021/07/08 12:14:11;;;;;;;7.43;5.93;;;36.50;56.70;;;;;;5095515;28;20040;-57
2021/07/08 12:16:39;;;;;;;6.55;5.78;;;36.30;56.00;;;;;;5095785;28;20044;-57
2021/07/08 12:19:20;;;;;;;6.72;6.00;;;36.30;56.10;;;;;;5095939;28;20083;-57
2021/07/08 12:21:49;;;;;;;7.55;5.68;;;36.40;56.30;;;;;;5095034;28;20381;-57
2021/07/08 12:24:33;;;;;;;7.63;5.63;;;36.30;56.50;;;;;;5077630;28;20063;-57
2021/07/08 12:27:03;;;;;;;7.38;6.05;;;36.30;56.00;;;;;;5095203;28;20528;-57
2021/07/08 12:29:36;;;;;;;7.00;5.65;;;36.20;56.00;;;;;;5094815;28;20094;-57
2021/07/08 12:32:12;;;;;;;6.85;5.20;;;36.20;56.20;;;;;;5086778;28;20048;-57
2021/07/08 12:34:44;;;;;;;6.63;5.68;;;36.20;55.80;;;;;;5095342;28;20127;-57
2021/07/08 12:37:16;;;;;;;6.15;5.55;;;36.20;55.60;;;;;;5093679;28;20048;-57
2021/07/08 12:40:05;;;;;;;7.25;4.35;;;36.20;55.70;;;;;;5094932;28;20425;-57
2021/07/08 12:42:36;;;;;;;5.90;5.05;;;36.20;55.70;;;;;;5093661;28;20127;-57
2021/07/08 12:45:15;;;;;;;7.72;5.45;;;36.10;56.30;;;;;;5088432;28;20105;-57
2021/07/08 12:47:48;;;;;;;8.70;4.47;;;36.10;56.20;;;;;;5094490;28;20052;-57
2021/07/08 12:50:17;;;;;;;5.82;5.22;;;36.20;56.10;;;;;;5076909;28;20048;-57
2021/07/08 12:52:45;;;;;;;7.68;5.70;;;36.20;56.40;;;;;;5094545;28;20040;-57
2021/07/08 12:55:40;;;;;;;9.18;5.53;;;36.20;56.50;;;;;;5095494;28;20094;-57
2021/07/08 12:58:23;;;;;;;8.40;6.20;;;36.20;56.10;;;;;;5094893;28;20047;-57
2021/07/08 13:00:53;;;;;;;6.50;5.30;;;36.10;55.90;;;;;;5094711;28;20135;-57
2021/07/08 13:03:26;;;;;;;7.68;5.68;;;36.10;56.00;;;;;;5094499;28;20398;-57